Pineville, Louisiana
Current Conditions -  °F | °C
As of 3:53 PM on Friday 28 Nov 2014 (Local Time) from KAEX Reporting Station
Clear Clear  
Wind Chill: 63°   Ceiling: Unl
Heat Index: 63°   Visibility: 10mi
Dew Point: 42°   Wind: 8mph
Humidity: 46%   Direction: 170°S
Pressure: 30.21"   Gusts: NA
Location:  31.32°N, 92.43°W
Report Text: KAEX 282153Z 17007KT 10SM CLR 17/06 A3021 RMK AO2 SLP236 T01720056
Loading
Personal Weather Stations






























Interactive Weather Map New forecast layout! Learn more

10-Day Weather Forecast

Advertisements
Track Severe Weather on mobile